createdAt,value
2023-04-10T00:01:05.411Z,89.94
2023-04-10T00:05:30.395Z,90.17
2023-04-10T00:10:10.305Z,89.95
2023-04-10T00:14:30.628Z,89.91
2023-04-10T00:18:39.350Z,89.94
2023-04-10T00:23:23.670Z,89.80
2023-04-10T00:28:07.673Z,89.91
2023-04-10T00:32:33.474Z,89.34
2023-04-10T00:36:43.855Z,89.10
2023-04-10T00:41:05.609Z,89.51
2023-04-10T00:45:33.885Z,89.12
2023-04-10T00:50:03.981Z,89.63
2023-04-10T00:54:28.651Z,88.77
2023-04-10T00:58:32.968Z,88.59
2023-04-10T01:02:57.991Z,89.11
2023-04-10T01:07:51.237Z,89.10
2023-04-10T01:12:00.158Z,89.98
2023-04-10T01:16:59.793Z,90.97
2023-04-10T01:21:44.010Z,89.29
2023-04-10T01:26:21.427Z,89.63
2023-04-10T01:30:53.400Z,90.40
2023-04-10T01:35:28.026Z,90.45
2023-04-10T01:39:14.673Z,90.70
2023-04-10T01:43:20.862Z,90.90
2023-04-10T01:47:33.092Z,91.06
2023-04-10T01:51:58.534Z,91.41
2023-04-10T01:56:12.073Z,91.72
2023-04-10T02:00:16.866Z,91.80
2023-04-10T02:04:25.721Z,92.30
2023-04-10T02:08:56.577Z,92.52
2023-04-10T02:13:12.414Z,92.98
2023-04-10T02:17:36.882Z,93.09
2023-04-10T02:22:08.394Z,92.85
2023-04-10T02:26:39.973Z,92.69
2023-04-10T02:30:56.055Z,92.97
2023-04-10T02:35:00.171Z,93.30
2023-04-10T02:39:47.428Z,92.32
2023-04-10T02:44:08.274Z,92.78
2023-04-10T02:48:20.943Z,91.78
2023-04-10T03:00:48.767Z,92.11
2023-04-10T03:05:00.979Z,91.92
2023-04-10T03:09:29.267Z,92.28
2023-04-10T03:13:49.497Z,93.20
2023-04-10T03:18:21.386Z,93.50
2023-04-10T03:22:33.245Z,92.94
2023-04-10T03:26:46.538Z,92.50
2023-04-10T03:31:33.434Z,93.02
2023-04-10T03:36:17.749Z,93.60
2023-04-10T03:40:50.477Z,93.71
2023-04-10T03:45:31.129Z,94.23
2023-04-10T03:50:14.976Z,93.91
2023-04-10T03:54:38.906Z,94.03
2023-04-10T03:58:52.896Z,94.07
2023-04-10T04:03:19.087Z,93.71
2023-04-10T04:07:43.521Z,93.56
2023-04-10T04:12:23.631Z,93.53
2023-04-10T04:16:47.940Z,93.90
2023-04-10T04:21:08.162Z,94.74
2023-04-10T04:25:39.839Z,94.06
2023-04-10T04:29:45.918Z,93.48
2023-04-10T04:33:54.783Z,93.54
2023-04-10T04:37:38.138Z,93.12
2023-04-10T04:41:44.666Z,92.96
2023-04-10T04:45:57.147Z,93.31
2023-04-10T04:50:30.052Z,92.71
2023-04-10T04:54:58.987Z,93.08
2023-04-10T04:59:07.288Z,93.05
2023-04-10T05:03:31.737Z,93.16
2023-04-10T05:07:57.425Z,93.65
2023-04-10T05:12:03.624Z,93.53
2023-04-10T05:16:13.593Z,93.73
2023-04-10T05:20:46.218Z,93.86
2023-04-10T05:25:18.468Z,93.66
2023-04-10T05:29:38.702Z,92.96
2023-04-10T05:34:00.038Z,93.27
2023-04-10T05:38:12.604Z,93.37
2023-04-10T05:42:29.748Z,93.98
2023-04-10T05:46:51.279Z,94.08
2023-04-10T05:51:31.644Z,94.05
2023-04-10T05:55:56.006Z,93.96
2023-04-10T06:00:18.501Z,93.98
2023-04-10T06:04:42.797Z,93.92
2023-04-10T06:08:56.865Z,93.62
2023-04-10T06:13:05.310Z,93.57
2023-04-10T06:17:28.821Z,93.61
2023-04-10T06:22:09.153Z,93.31
2023-04-10T06:26:24.868Z,93.33
2023-04-10T06:30:49.802Z,93.21
2023-04-10T06:35:07.136Z,93.01
2023-04-10T06:39:31.075Z,93.00
2023-04-10T06:43:39.530Z,92.75
2023-04-10T06:47:44.525Z,92.40
2023-04-10T06:52:13.399Z,92.12
2023-04-10T06:56:29.428Z,92.17
2023-04-10T07:01:01.513Z,92.20
2023-04-10T07:05:27.179Z,92.67
2023-04-10T07:09:37.125Z,92.70
2023-04-10T07:14:01.422Z,92.73
2023-04-10T07:18:22.301Z,92.76
2023-04-10T07:22:28.439Z,92.81
2023-04-10T07:26:51.659Z,92.27
2023-04-10T07:31:15.774Z,92.24
2023-04-10T07:35:24.438Z,91.80
2023-04-10T07:39:22.321Z,91.44
2023-04-10T07:44:06.811Z,91.47
2023-04-10T07:48:49.865Z,91.33
2023-04-10T07:53:14.876Z,91.75
2023-04-10T07:58:00.364Z,91.50
2023-04-10T08:02:33.732Z,91.45
2023-04-10T08:06:38.398Z,91.29
2023-04-10T08:11:06.497Z,91.22
2023-04-10T08:15:27.379Z,91.79
2023-04-10T08:19:59.043Z,91.49
2023-04-10T08:24:33.735Z,91.33
2023-04-10T08:29:18.020Z,91.12
2023-04-10T08:33:30.365Z,91.02
2023-04-10T08:37:43.146Z,90.95
2023-04-10T08:42:14.328Z,90.73
2023-04-10T08:46:58.480Z,90.77
2023-04-10T08:51:26.335Z,90.45
2023-04-10T08:55:56.048Z,89.69
2023-04-10T09:00:28.172Z,89.80
2023-04-10T09:04:41.810Z,89.00
2023-04-10T09:12:55.147Z,88.86
2023-04-10T09:17:19.473Z,89.20
2023-04-10T09:21:35.412Z,88.70
2023-04-10T09:25:21.173Z,88.28
2023-04-10T09:29:57.829Z,87.58
2023-04-10T09:34:03.271Z,87.81
2023-04-10T09:37:59.687Z,88.17
2023-04-10T09:42:33.255Z,88.07
2023-04-10T09:47:04.407Z,88.48
2023-04-10T09:51:36.740Z,88.66
2023-04-10T09:55:49.431Z,88.51
2023-04-10T10:00:23.032Z,88.40
2023-04-10T10:05:02.601Z,88.23
2023-04-10T10:09:10.711Z,87.44
2023-04-10T10:13:35.833Z,88.05
2023-04-10T10:18:04.012Z,88.24
2023-04-10T10:22:30.399Z,87.64
2023-04-10T10:27:02.342Z,87.07
2023-04-10T10:31:47.098Z,86.34
2023-04-10T10:36:18.844Z,85.89
2023-04-10T10:41:00.483Z,86.64
2023-04-10T10:45:17.224Z,86.69
2023-04-10T10:49:24.365Z,86.67
2023-04-10T10:53:35.829Z,86.37
2023-04-10T10:58:02.710Z,86.56
2023-04-10T11:02:23.200Z,86.40
2023-04-10T11:06:33.225Z,86.46
2023-04-10T11:11:11.708Z,86.40
2023-04-10T11:15:58.514Z,86.30
2023-04-10T11:20:35.027Z,86.29
2023-04-10T11:24:58.658Z,84.62
2023-04-10T11:29:15.268Z,85.59
2023-04-10T11:33:27.031Z,85.75
2023-04-10T11:37:04.842Z,85.64
2023-04-10T11:41:39.739Z,85.44
2023-04-10T11:46:26.755Z,84.62
2023-04-10T11:50:33.793Z,84.27
2023-04-10T11:54:52.660Z,84.62
2023-04-10T11:59:28.224Z,84.39
2023-04-10T12:03:38.828Z,84.61
2023-04-10T12:08:07.759Z,84.81
2023-04-10T12:12:25.544Z,84.17
2023-04-10T12:16:33.265Z,84.23
2023-04-10T12:20:39.981Z,83.55
2023-04-10T12:25:25.785Z,83.43
2023-04-10T12:29:44.654Z,82.37
2023-04-10T12:33:30.965Z,80.54
2023-04-10T12:40:36.362Z,78.21
2023-04-10T12:44:50.218Z,76.45
2023-04-10T12:48:34.817Z,75.61
2023-04-10T12:52:37.996Z,77.25
2023-04-10T12:56:34.013Z,76.63
2023-04-10T13:00:33.074Z,77.40
2023-04-10T13:03:41.176Z,75.93
2023-04-10T13:07:37.472Z,73.92
2023-04-10T13:11:09.381Z,73.72
2023-04-10T13:14:21.483Z,74.49
2023-04-10T13:17:54.472Z,74.15
2023-04-10T13:21:32.792Z,72.91
2023-04-10T13:24:41.609Z,71.38
2023-04-10T13:28:03.169Z,72.14
2023-04-10T13:31:23.198Z,72.63
2023-04-10T13:35:22.429Z,72.99
2023-04-10T13:38:55.466Z,71.97
2023-04-10T13:42:05.498Z,71.68
2023-04-10T13:45:33.619Z,71.78
2023-04-10T13:49:05.968Z,70.71
2023-04-10T13:52:13.900Z,70.36
2023-04-10T13:55:38.009Z,69.28
2023-04-10T13:59:02.606Z,70.35
2023-04-10T14:02:37.643Z,69.01
2023-04-10T14:05:55.993Z,67.07
2023-04-10T14:09:22.635Z,67.42
2023-04-10T14:12:45.452Z,67.32
2023-04-10T14:16:39.148Z,68.88
2023-04-10T14:19:53.737Z,68.15
2023-04-10T14:23:22.473Z,67.13
2023-04-10T14:27:04.939Z,67.17
2023-04-10T14:30:39.178Z,65.31
2023-04-10T14:33:48.313Z,66.38
2023-04-10T14:37:37.476Z,65.34
2023-04-10T14:40:58.600Z,67.53
2023-04-10T14:44:35.977Z,67.19
2023-04-10T14:47:42.587Z,66.46
2023-04-10T14:51:01.219Z,67.01
2023-04-10T14:54:28.928Z,67.76
2023-04-10T14:58:18.660Z,66.40
2023-04-10T15:01:31.520Z,66.82
2023-04-10T15:04:55.735Z,67.55
2023-04-10T15:08:23.795Z,68.36
2023-04-10T15:11:27.359Z,67.72
2023-04-10T15:14:30.944Z,68.21
2023-04-10T15:17:33.871Z,67.94
2023-04-10T15:20:41.135Z,67.24
2023-04-10T15:23:44.081Z,67.21
2023-04-10T15:26:47.460Z,68.31
2023-04-10T15:29:50.359Z,67.83
2023-04-10T15:32:53.292Z,68.73
2023-04-10T15:35:56.309Z,68.92
2023-04-10T15:39:03.785Z,68.83
2023-04-10T15:42:08.341Z,68.87
2023-04-10T15:45:11.348Z,69.42
2023-04-10T15:48:14.237Z,69.43
2023-04-10T15:51:18.763Z,69.84
2023-04-10T15:54:21.701Z,70.16
2023-04-10T15:57:25.213Z,70.56
2023-04-10T16:00:28.049Z,70.81
2023-04-10T16:03:31.049Z,70.92
2023-04-10T16:06:35.179Z,70.83
2023-04-10T16:09:38.203Z,71.09
2023-04-10T16:12:41.854Z,71.05
2023-04-10T16:15:45.607Z,71.37
2023-04-10T16:18:54.288Z,71.70
2023-04-10T16:21:57.448Z,72.00
2023-04-10T16:25:00.617Z,72.13
2023-04-10T16:28:06.614Z,72.26
2023-04-10T16:31:09.843Z,72.19
2023-04-10T16:34:12.733Z,72.82
2023-04-10T16:37:15.748Z,72.85
2023-04-10T16:40:19.099Z,73.30
2023-04-10T16:43:23.217Z,73.24
2023-04-10T16:46:27.197Z,73.58
2023-04-10T16:49:30.534Z,73.72
2023-04-10T16:52:33.477Z,74.08
2023-04-10T16:55:36.341Z,74.34
2023-04-10T16:58:41.242Z,74.72
2023-04-10T17:01:44.488Z,74.59
2023-04-10T17:04:47.385Z,74.56
2023-04-10T17:07:50.275Z,74.75
2023-04-10T17:10:53.102Z,74.94
2023-04-10T17:13:55.910Z,75.33
2023-04-10T17:16:58.725Z,75.58
2023-04-10T17:20:01.984Z,75.81
2023-04-10T17:23:04.816Z,75.96
2023-04-10T17:26:13.018Z,76.14
2023-04-10T17:29:15.994Z,76.84
2023-04-10T17:32:19.202Z,77.05
2023-04-10T17:35:22.272Z,77.22
2023-04-10T17:38:25.888Z,77.32
2023-04-10T17:41:29.020Z,77.77
2023-04-10T17:44:32.374Z,77.99
2023-04-10T17:47:36.122Z,78.36
2023-04-10T17:50:39.362Z,78.63
2023-04-10T17:53:42.620Z,78.94
2023-04-10T17:56:45.451Z,79.18
2023-04-10T17:59:48.851Z,79.42
2023-04-10T18:02:58.047Z,79.59
2023-04-10T18:06:01.190Z,79.47
2023-04-10T18:09:04.530Z,80.43
2023-04-10T18:12:07.680Z,80.07
2023-04-10T18:15:11.017Z,81.17
2023-04-10T18:18:14.311Z,83.88
2023-04-10T18:21:19.015Z,82.60
2023-04-10T18:24:22.479Z,82.52
2023-04-10T18:27:25.549Z,82.53
2023-04-10T18:30:28.635Z,82.51
2023-04-10T18:33:31.806Z,83.18
2023-04-10T18:36:35.292Z,84.09
2023-04-10T18:39:38.426Z,82.96
2023-04-10T18:42:41.521Z,82.60
2023-04-10T18:45:44.737Z,82.11
2023-04-10T18:48:50.426Z,82.59
2023-04-10T18:51:53.887Z,82.71
2023-04-10T18:54:57.105Z,82.75
2023-04-10T18:58:00.153Z,82.81
2023-04-10T19:01:03.605Z,82.82
2023-04-10T19:04:06.962Z,82.92
2023-04-10T19:07:10.247Z,82.89
2023-04-10T19:10:13.276Z,83.20
2023-04-10T19:13:16.248Z,83.17
2023-04-10T19:16:20.565Z,83.18
2023-04-10T19:19:23.940Z,83.06
2023-04-10T19:22:26.865Z,83.15
2023-04-10T19:25:29.795Z,83.20
2023-04-10T19:28:34.712Z,83.25
2023-04-10T19:31:37.588Z,83.43
2023-04-10T19:34:40.524Z,83.33
2023-04-10T19:37:47.768Z,83.30
2023-04-10T19:40:58.317Z,83.53
2023-04-10T19:44:01.299Z,83.63
2023-04-10T19:47:04.512Z,83.79
2023-04-10T19:50:08.249Z,83.97
2023-04-10T19:53:13.022Z,83.63
2023-04-10T19:56:17.039Z,84.19
2023-04-10T19:59:23.005Z,84.60
2023-04-10T20:02:26.109Z,84.76
2023-04-10T20:05:29.415Z,86.74
2023-04-10T20:08:32.381Z,86.45
2023-04-10T20:11:35.242Z,85.75
2023-04-10T20:14:38.567Z,85.71
2023-04-10T20:17:41.464Z,85.92
2023-04-10T20:20:44.828Z,85.76
2023-04-10T20:23:47.859Z,85.54
2023-04-10T20:26:53.317Z,85.12
2023-04-10T20:29:56.211Z,86.10
2023-04-10T20:32:59.369Z,87.17
2023-04-10T20:36:02.590Z,86.39
2023-04-10T20:39:05.565Z,85.79
2023-04-10T20:42:08.393Z,86.38
2023-04-10T20:45:11.832Z,86.42
2023-04-10T20:48:14.669Z,86.58
2023-04-10T20:51:17.498Z,86.74
2023-04-10T20:54:23.332Z,86.44
2023-04-10T20:57:26.162Z,86.62
2023-04-10T21:00:31.079Z,86.63
2023-04-10T21:03:36.044Z,86.28
2023-04-10T21:06:41.658Z,85.75
2023-04-10T21:09:44.634Z,85.84
2023-04-10T21:12:47.473Z,85.84
2023-04-10T21:15:52.348Z,85.29
2023-04-10T21:18:55.473Z,85.36
2023-04-10T21:21:58.739Z,85.57
2023-04-10T21:25:01.554Z,85.55
2023-04-10T21:28:04.482Z,85.84
2023-04-10T21:31:10.833Z,85.81
2023-04-10T21:34:15.247Z,85.90
2023-04-10T21:37:18.064Z,85.66
2023-04-10T21:40:21.058Z,85.65
2023-04-10T21:43:23.912Z,86.06
2023-04-10T21:46:26.843Z,85.94
2023-04-10T21:49:29.761Z,85.93
2023-04-10T21:52:32.653Z,85.67
2023-04-10T21:55:35.573Z,85.73
2023-04-10T21:58:38.497Z,85.83
2023-04-10T22:01:41.987Z,86.35
2023-04-10T22:04:53.810Z,86.28
2023-04-10T22:07:57.813Z,86.76
2023-04-10T22:11:00.662Z,86.69
2023-04-10T22:14:16.073Z,86.58
2023-04-10T22:17:20.317Z,86.63
2023-04-10T22:20:23.181Z,88.44
2023-04-10T22:23:26.288Z,87.62
2023-04-10T22:26:29.189Z,87.21
2023-04-10T22:29:34.005Z,87.06
2023-04-10T22:32:37.093Z,86.91
2023-04-10T22:35:40.163Z,86.92
2023-04-10T22:38:43.176Z,86.85
2023-04-10T22:41:46.128Z,87.00
2023-04-10T22:44:49.053Z,87.04
2023-04-10T22:47:51.855Z,87.13
2023-04-10T22:50:54.727Z,87.69
2023-04-10T22:53:57.727Z,87.77
2023-04-10T22:57:00.904Z,87.86
2023-04-10T23:00:04.449Z,88.07
2023-04-10T23:03:07.326Z,87.76
2023-04-10T23:06:10.275Z,87.66
2023-04-10T23:09:13.229Z,87.66
2023-04-10T23:12:16.091Z,87.81
2023-04-10T23:15:19.054Z,87.57
2023-04-10T23:18:22.408Z,87.78
2023-04-10T23:21:25.370Z,87.88
2023-04-10T23:24:28.341Z,88.01
2023-04-10T23:27:31.251Z,87.94
2023-04-10T23:30:35.746Z,87.53
2023-04-10T23:33:38.628Z,87.51
2023-04-10T23:36:42.062Z,87.45
2023-04-10T23:39:44.883Z,87.48
2023-04-10T23:42:47.748Z,87.79
2023-04-10T23:45:50.601Z,87.83
2023-04-10T23:48:54.997Z,87.34
2023-04-10T23:51:57.984Z,87.49
2023-04-10T23:55:00.880Z,87.60
2023-04-10T23:58:03.747Z,87.78
